AEE7IN LGSR-LGAV
Flight info
| Callsign | AEE7IN |
|---|---|
| Flight time | 0h 38m |
| Altitude | 14000 |
| Route | NETIS M601 MIL L617 SOREV |
| Aircraft | A320/M-SDE3FGHIRWY/LB1 |
Departure
| Time | 2026-05-09 10:14 |
|---|---|
| Airport | Santorini International Airport (LGSR) |
Arrival
| Time | 2026-05-09 10:53 |
|---|---|
| Airport | Athens Eleftherios Venizelos International Airport (LGAV) |
| Time | Latitude | Longitude | Altitude | Speed | Heading |
|---|---|---|---|---|---|
| 2026-05-09 09:54 | 36.40340 | 25.47377 | 90 ft | 0 kts | 252° |
| 2026-05-09 10:06 | 36.40342 | 25.47381 | 90 ft | 3 kts | 252° |
| 2026-05-09 10:06 | 36.40347 | 25.47413 | 90 ft | 4 kts | 271° |
| 2026-05-09 10:07 | 36.40342 | 25.47443 | 90 ft | 4 kts | 316° |
| 2026-05-09 10:07 | 36.40331 | 25.47452 | 90 ft | 1 kts | 339° |
| 2026-05-09 10:07 | 36.40329 | 25.47453 | 90 ft | 0 kts | 339° |
| 2026-05-09 10:11 | 36.40344 | 25.47446 | 91 ft | 4 kts | 339° |
| 2026-05-09 10:11 | 36.40387 | 25.47427 | 90 ft | 8 kts | 353° |
| 2026-05-09 10:11 | 36.40426 | 25.47480 | 92 ft | 10 kts | 63° |
| 2026-05-09 10:11 | 36.40490 | 25.47476 | 90 ft | 11 kts | 336° |
| 2026-05-09 10:12 | 36.40567 | 25.47438 | 91 ft | 13 kts | 340° |
| 2026-05-09 10:12 | 36.40655 | 25.47399 | 93 ft | 15 kts | 340° |
| 2026-05-09 10:12 | 36.40756 | 25.47353 | 91 ft | 12 kts | 340° |
| 2026-05-09 10:12 | 36.40825 | 25.47365 | 91 ft | 12 kts | 54° |
| 2026-05-09 10:13 | 36.40846 | 25.47466 | 93 ft | 13 kts | 114° |
| 2026-05-09 10:13 | 36.40814 | 25.47493 | 93 ft | 0 kts | 159° |
| 2026-05-09 10:13 | 36.40778 | 25.47510 | 92 ft | 30 kts | 159° |
| 2026-05-09 10:13 | 36.40353 | 25.47712 | 91 ft | 97 kts | 160° |
| 2026-05-09 10:14 | 36.39563 | 25.48086 | 73 ft | 144 kts | 159° |
| 2026-05-09 10:14 | 36.38593 | 25.48534 | 553 ft | 145 kts | 158° |
| 2026-05-09 10:14 | 36.37645 | 25.49027 | 1082 ft | 149 kts | 152° |
| 2026-05-09 10:14 | 36.36717 | 25.49604 | 1661 ft | 149 kts | 152° |
| 2026-05-09 10:15 | 36.35755 | 25.50225 | 1995 ft | 166 kts | 152° |
| 2026-05-09 10:15 | 36.34669 | 25.50932 | 2233 ft | 188 kts | 151° |
| 2026-05-09 10:15 | 36.33437 | 25.51742 | 2492 ft | 213 kts | 152° |
| 2026-05-09 10:15 | 36.32054 | 25.52668 | 2904 ft | 238 kts | 152° |
| 2026-05-09 10:16 | 36.30551 | 25.53702 | 3500 ft | 253 kts | 152° |
| 2026-05-09 10:16 | 36.29005 | 25.54806 | 4329 ft | 260 kts | 152° |
| 2026-05-09 10:16 | 36.27430 | 25.55862 | 5435 ft | 248 kts | 162° |
| 2026-05-09 10:16 | 36.25818 | 25.56168 | 6664 ft | 229 kts | 191° |
| 2026-05-09 10:17 | 36.24350 | 25.55443 | 7311 ft | 235 kts | 221° |
| 2026-05-09 10:17 | 36.23387 | 25.53789 | 7991 ft | 242 kts | 250° |
| 2026-05-09 10:17 | 36.23013 | 25.51743 | 8857 ft | 245 kts | 261° |
| 2026-05-09 10:17 | 36.22827 | 25.49646 | 9764 ft | 246 kts | 266° |
| 2026-05-09 10:18 | 36.22806 | 25.47526 | 10606 ft | 247 kts | 271° |
| 2026-05-09 10:18 | 36.22962 | 25.45401 | 11405 ft | 249 kts | 277° |
| 2026-05-09 10:18 | 36.23295 | 25.43285 | 12197 ft | 252 kts | 282° |
| 2026-05-09 10:18 | 36.23814 | 25.41202 | 12983 ft | 255 kts | 288° |
| 2026-05-09 10:19 | 36.24514 | 25.39167 | 13746 ft | 259 kts | 292° |
| 2026-05-09 10:19 | 36.25393 | 25.37201 | 14001 ft | 262 kts | 298° |
| 2026-05-09 10:19 | 36.26469 | 25.35332 | 14072 ft | 278 kts | 304° |
| 2026-05-09 10:19 | 36.27816 | 25.33480 | 14085 ft | 307 kts | 311° |
| 2026-05-09 10:20 | 36.29480 | 25.31716 | 14081 ft | 320 kts | 319° |
| 2026-05-09 10:20 | 36.31376 | 25.30211 | 14074 ft | 326 kts | 326° |
| 2026-05-09 10:20 | 36.33441 | 25.29013 | 14088 ft | 331 kts | 333° |
| 2026-05-09 10:20 | 36.35655 | 25.28152 | 14077 ft | 336 kts | 341° |
| 2026-05-09 10:21 | 36.37977 | 25.27674 | 14074 ft | 341 kts | 349° |
| 2026-05-09 10:21 | 36.40365 | 25.27614 | 14073 ft | 346 kts | 357° |
| 2026-05-09 10:21 | 36.42770 | 25.27987 | 14076 ft | 351 kts | 6° |
| 2026-05-09 10:21 | 36.45139 | 25.28809 | 14072 ft | 356 kts | 15° |
| 2026-05-09 10:22 | 36.47420 | 25.30062 | 14079 ft | 359 kts | 20° |
| 2026-05-09 10:22 | 36.49770 | 25.30934 | 14076 ft | 348 kts | 358° |
| 2026-05-09 10:22 | 36.52094 | 25.30550 | 14075 ft | 331 kts | 332° |
| 2026-05-09 10:22 | 36.53971 | 25.29033 | 14082 ft | 318 kts | 309° |
| 2026-05-09 10:23 | 36.55136 | 25.26773 | 14075 ft | 309 kts | 287° |
| 2026-05-09 10:23 | 36.55602 | 25.24191 | 14075 ft | 307 kts | 279° |
| 2026-05-09 10:23 | 36.56107 | 25.21605 | 14078 ft | 309 kts | 285° |
| 2026-05-09 10:23 | 36.56876 | 25.19105 | 14078 ft | 311 kts | 292° |
| 2026-05-09 10:24 | 36.57922 | 25.16747 | 14092 ft | 314 kts | 299° |
| 2026-05-09 10:24 | 36.59217 | 25.14534 | 14103 ft | 316 kts | 303° |
| 2026-05-09 10:24 | 36.60556 | 25.12363 | 14099 ft | 317 kts | 303° |
| 2026-05-09 10:24 | 36.61895 | 25.10184 | 14099 ft | 317 kts | 303° |
| 2026-05-09 10:25 | 36.63232 | 25.08008 | 14095 ft | 316 kts | 303° |
| 2026-05-09 10:25 | 36.64566 | 25.05836 | 14095 ft | 316 kts | 303° |
| 2026-05-09 10:25 | 36.65898 | 25.03666 | 14089 ft | 316 kts | 303° |
| 2026-05-09 10:25 | 36.67235 | 25.01479 | 14102 ft | 316 kts | 303° |
| 2026-05-09 10:26 | 36.68573 | 24.99295 | 14120 ft | 317 kts | 303° |
| 2026-05-09 10:26 | 36.69752 | 24.96993 | 14112 ft | 314 kts | 292° |
| 2026-05-09 10:26 | 36.70447 | 24.94444 | 14112 ft | 310 kts | 280° |
| 2026-05-09 10:26 | 36.70742 | 24.91798 | 14119 ft | 308 kts | 275° |
| 2026-05-09 10:27 | 36.71003 | 24.89179 | 14110 ft | 307 kts | 276° |
| 2026-05-09 10:27 | 36.71279 | 24.86522 | 14097 ft | 305 kts | 276° |
| 2026-05-09 10:27 | 36.71548 | 24.83904 | 14077 ft | 305 kts | 276° |
| 2026-05-09 10:27 | 36.71813 | 24.81287 | 14092 ft | 302 kts | 276° |
| 2026-05-09 10:28 | 36.72072 | 24.78707 | 14097 ft | 305 kts | 276° |
| 2026-05-09 10:28 | 36.72338 | 24.76079 | 14093 ft | 307 kts | 276° |
| 2026-05-09 10:28 | 36.72609 | 24.73443 | 14088 ft | 307 kts | 276° |
| 2026-05-09 10:28 | 36.72879 | 24.70806 | 14099 ft | 306 kts | 276° |
| 2026-05-09 10:29 | 36.73148 | 24.68164 | 14121 ft | 307 kts | 276° |
| 2026-05-09 10:29 | 36.73411 | 24.65520 | 14115 ft | 307 kts | 276° |
| 2026-05-09 10:29 | 36.73672 | 24.62874 | 14111 ft | 307 kts | 276° |
| 2026-05-09 10:29 | 36.73929 | 24.60248 | 14113 ft | 306 kts | 276° |
| 2026-05-09 10:30 | 36.74188 | 24.57613 | 14122 ft | 306 kts | 276° |
| 2026-05-09 10:30 | 36.74764 | 24.55056 | 14104 ft | 310 kts | 293° |
| 2026-05-09 10:30 | 36.75542 | 24.53508 | 14099 ft | 315 kts | 306° |
| 2026-05-09 10:30 | 36.77204 | 24.51700 | 14097 ft | 324 kts | 324° |
| 2026-05-09 10:31 | 36.79328 | 24.50682 | 14093 ft | 332 kts | 341° |
| 2026-05-09 10:31 | 36.81586 | 24.50055 | 14082 ft | 333 kts | 342° |
| 2026-05-09 10:31 | 36.83859 | 24.49445 | 14085 ft | 335 kts | 342° |
| 2026-05-09 10:31 | 36.86138 | 24.48840 | 14084 ft | 335 kts | 342° |
| 2026-05-09 10:32 | 36.88418 | 24.48233 | 14079 ft | 335 kts | 342° |
| 2026-05-09 10:32 | 36.90671 | 24.47631 | 14076 ft | 335 kts | 342° |
| 2026-05-09 10:32 | 36.92979 | 24.47010 | 14081 ft | 335 kts | 342° |
| 2026-05-09 10:32 | 36.95259 | 24.46390 | 14076 ft | 335 kts | 342° |
| 2026-05-09 10:33 | 36.97540 | 24.45766 | 14097 ft | 336 kts | 342° |
| 2026-05-09 10:33 | 36.99792 | 24.45150 | 14095 ft | 336 kts | 342° |
| 2026-05-09 10:33 | 37.02075 | 24.44528 | 14089 ft | 336 kts | 342° |
| 2026-05-09 10:33 | 37.04357 | 24.43905 | 14099 ft | 335 kts | 342° |
| 2026-05-09 10:34 | 37.06638 | 24.43283 | 14101 ft | 335 kts | 342° |
| 2026-05-09 10:34 | 37.11200 | 24.42043 | 14099 ft | 335 kts | 342° |
| 2026-05-09 10:34 | 37.13483 | 24.41423 | 14106 ft | 335 kts | 342° |
| 2026-05-09 10:35 | 37.15762 | 24.40806 | 14104 ft | 335 kts | 342° |
| 2026-05-09 10:35 | 37.18036 | 24.40188 | 14094 ft | 334 kts | 342° |
| 2026-05-09 10:35 | 37.20303 | 24.39570 | 14106 ft | 334 kts | 342° |
| 2026-05-09 10:35 | 37.22565 | 24.38952 | 14098 ft | 333 kts | 342° |
| 2026-05-09 10:36 | 37.24829 | 24.38336 | 14105 ft | 333 kts | 342° |
| 2026-05-09 10:36 | 37.27092 | 24.37718 | 14090 ft | 332 kts | 342° |
| 2026-05-09 10:36 | 37.29351 | 24.37100 | 14081 ft | 334 kts | 342° |
| 2026-05-09 10:36 | 37.31637 | 24.36469 | 14094 ft | 336 kts | 342° |
| 2026-05-09 10:37 | 37.33919 | 24.35854 | 14095 ft | 332 kts | 342° |
| 2026-05-09 10:37 | 37.36174 | 24.35243 | 14088 ft | 332 kts | 342° |
| 2026-05-09 10:37 | 37.38432 | 24.34627 | 14079 ft | 333 kts | 342° |
| 2026-05-09 10:37 | 37.40699 | 24.34001 | 14101 ft | 334 kts | 342° |
| 2026-05-09 10:38 | 37.42963 | 24.33382 | 14114 ft | 331 kts | 342° |
| 2026-05-09 10:38 | 37.45215 | 24.32770 | 14071 ft | 331 kts | 342° |
| 2026-05-09 10:38 | 37.47464 | 24.32150 | 14060 ft | 331 kts | 342° |
| 2026-05-09 10:38 | 37.49716 | 24.31527 | 14055 ft | 332 kts | 342° |
| 2026-05-09 10:39 | 37.51974 | 24.30904 | 14057 ft | 333 kts | 342° |
| 2026-05-09 10:39 | 37.54208 | 24.30290 | 14055 ft | 333 kts | 342° |
| 2026-05-09 10:39 | 37.56511 | 24.29751 | 14040 ft | 338 kts | 348° |
| 2026-05-09 10:39 | 37.58823 | 24.29417 | 13653 ft | 329 kts | 348° |
| 2026-05-09 10:40 | 37.61078 | 24.29098 | 12864 ft | 325 kts | 348° |
| 2026-05-09 10:40 | 37.63299 | 24.28789 | 12341 ft | 315 kts | 348° |
| 2026-05-09 10:40 | 37.65438 | 24.28494 | 11958 ft | 303 kts | 348° |
| 2026-05-09 10:40 | 37.67490 | 24.28210 | 11605 ft | 291 kts | 348° |
| 2026-05-09 10:41 | 37.69465 | 24.27932 | 11263 ft | 280 kts | 347° |
| 2026-05-09 10:41 | 37.71378 | 24.27656 | 10919 ft | 277 kts | 347° |
| 2026-05-09 10:41 | 37.73299 | 24.27373 | 10584 ft | 279 kts | 347° |
| 2026-05-09 10:41 | 37.75237 | 24.27088 | 10248 ft | 281 kts | 348° |
| 2026-05-09 10:42 | 37.77181 | 24.26806 | 9910 ft | 282 kts | 348° |
| 2026-05-09 10:42 | 37.79131 | 24.26525 | 9528 ft | 283 kts | 348° |
| 2026-05-09 10:42 | 37.81082 | 24.26248 | 9179 ft | 282 kts | 348° |
| 2026-05-09 10:42 | 37.83039 | 24.25968 | 8810 ft | 283 kts | 348° |
| 2026-05-09 10:43 | 37.85000 | 24.25686 | 8450 ft | 283 kts | 348° |
| 2026-05-09 10:43 | 37.86961 | 24.25402 | 8095 ft | 284 kts | 348° |
| 2026-05-09 10:43 | 37.88922 | 24.25116 | 7747 ft | 284 kts | 348° |
| 2026-05-09 10:43 | 37.90890 | 24.24828 | 7399 ft | 285 kts | 348° |
| 2026-05-09 10:44 | 37.92851 | 24.24542 | 7043 ft | 284 kts | 349° |
| 2026-05-09 10:44 | 37.94821 | 24.24258 | 6701 ft | 285 kts | 349° |
| 2026-05-09 10:44 | 37.96792 | 24.23975 | 6348 ft | 285 kts | 349° |
| 2026-05-09 10:44 | 37.98762 | 24.23693 | 5990 ft | 285 kts | 348° |
| 2026-05-09 10:45 | 38.00691 | 24.23231 | 5646 ft | 279 kts | 338° |
| 2026-05-09 10:46 | 38.07301 | 24.18849 | 4730 ft | 251 kts | 320° |
| 2026-05-09 10:46 | 38.08653 | 24.17521 | 4610 ft | 240 kts | 316° |
| 2026-05-09 10:46 | 38.09873 | 24.16155 | 4507 ft | 228 kts | 313° |
| 2026-05-09 10:46 | 38.10974 | 24.14782 | 4419 ft | 216 kts | 311° |
| 2026-05-09 10:47 | 38.11961 | 24.13373 | 4352 ft | 211 kts | 294° |
| 2026-05-09 10:47 | 38.12156 | 24.11637 | 4281 ft | 202 kts | 253° |
| 2026-05-09 10:47 | 38.11370 | 24.10205 | 4201 ft | 203 kts | 219° |
| 2026-05-09 10:47 | 38.10235 | 24.09130 | 4098 ft | 205 kts | 218° |
| 2026-05-09 10:48 | 38.09084 | 24.08040 | 3771 ft | 206 kts | 218° |
| 2026-05-09 10:48 | 38.07944 | 24.06954 | 3487 ft | 201 kts | 218° |
| 2026-05-09 10:48 | 38.06862 | 24.05920 | 3224 ft | 189 kts | 217° |
| 2026-05-09 10:48 | 38.05845 | 24.04947 | 3005 ft | 177 kts | 217° |
| 2026-05-09 10:49 | 38.04900 | 24.04043 | 2755 ft | 164 kts | 217° |
| 2026-05-09 10:49 | 38.04022 | 24.03205 | 2548 ft | 151 kts | 215° |
| 2026-05-09 10:49 | 38.03216 | 24.02435 | 2373 ft | 139 kts | 216° |
| 2026-05-09 10:49 | 38.02455 | 24.01707 | 2184 ft | 134 kts | 215° |
| 2026-05-09 10:50 | 38.01720 | 24.01006 | 2019 ft | 132 kts | 214° |
| 2026-05-09 10:50 | 38.00990 | 24.00310 | 1840 ft | 132 kts | 214° |
| 2026-05-09 10:50 | 38.00262 | 23.99615 | 1663 ft | 131 kts | 214° |
| 2026-05-09 10:50 | 37.99533 | 23.98920 | 1494 ft | 131 kts | 213° |
| 2026-05-09 10:51 | 37.98806 | 23.98227 | 1323 ft | 131 kts | 214° |
| 2026-05-09 10:51 | 37.98080 | 23.97534 | 1146 ft | 131 kts | 218° |
| 2026-05-09 10:51 | 37.97351 | 23.96840 | 982 ft | 131 kts | 214° |
| 2026-05-09 10:51 | 37.96623 | 23.96146 | 820 ft | 131 kts | 215° |
| 2026-05-09 10:52 | 37.95881 | 23.95440 | 685 ft | 133 kts | 217° |
| 2026-05-09 10:52 | 37.95154 | 23.94740 | 478 ft | 130 kts | 216° |
| 2026-05-09 10:52 | 37.94439 | 23.94071 | 316 ft | 124 kts | 218° |
| 2026-05-09 10:52 | 37.93861 | 23.93519 | 294 ft | 80 kts | 217° |
| 2026-05-09 10:53 | 37.93584 | 23.93258 | 293 ft | 27 kts | 217° |
| 2026-05-09 10:53 | 37.93418 | 23.93155 | 290 ft | 27 kts | 193° |
| 2026-05-09 10:53 | 37.93287 | 23.93134 | 295 ft | 0 kts | 183° |
| 2026-05-09 10:54 | 37.93286 | 23.93134 | 295 ft | 0 kts | 182° |
| 2026-05-09 10:54 | 37.93283 | 23.93136 | 295 ft | 1 kts | 168° |
| 2026-05-09 10:55 | 37.93272 | 23.93143 | 298 ft | 4 kts | 148° |
| 2026-05-09 10:55 | 37.93255 | 23.93184 | 301 ft | 6 kts | 107° |
| 2026-05-09 10:55 | 37.93270 | 23.93234 | 299 ft | 8 kts | 40° |
| 2026-05-09 10:55 | 37.93330 | 23.93287 | 301 ft | 12 kts | 40° |
| 2026-05-09 10:56 | 37.93399 | 23.93357 | 299 ft | 11 kts | 37° |
| 2026-05-09 10:56 | 37.93436 | 23.93392 | 299 ft | 2 kts | 37° |
| 2026-05-09 10:56 | 37.93485 | 23.93439 | 303 ft | 11 kts | 37° |
| 2026-05-09 10:56 | 37.93487 | 23.93530 | 301 ft | 13 kts | 124° |
| 2026-05-09 10:57 | 37.93430 | 23.93631 | 302 ft | 15 kts | 126° |
| 2026-05-09 10:57 | 37.93360 | 23.93747 | 301 ft | 18 kts | 128° |
| 2026-05-09 10:57 | 37.93270 | 23.93839 | 302 ft | 17 kts | 173° |
| 2026-05-09 10:57 | 37.93161 | 23.93891 | 301 ft | 18 kts | 130° |
| 2026-05-09 10:58 | 37.93095 | 23.94007 | 304 ft | 12 kts | 111° |
| 2026-05-09 10:58 | 37.93148 | 23.94104 | 301 ft | 17 kts | 37° |
| 2026-05-09 10:58 | 37.93254 | 23.94203 | 301 ft | 20 kts | 36° |
| 2026-05-09 10:58 | 37.93259 | 23.94330 | 302 ft | 17 kts | 126° |
| 2026-05-09 10:59 | 37.93181 | 23.94461 | 301 ft | 18 kts | 128° |
| 2026-05-09 10:59 | 37.93201 | 23.94579 | 303 ft | 18 kts | 37° |
| 2026-05-09 10:59 | 37.93306 | 23.94678 | 302 ft | 20 kts | 37° |
| 2026-05-09 10:59 | 37.93415 | 23.94783 | 303 ft | 19 kts | 36° |
| 2026-05-09 11:00 | 37.93520 | 23.94884 | 302 ft | 18 kts | 36° |
| 2026-05-09 11:00 | 37.93613 | 23.94972 | 301 ft | 17 kts | 37° |
| 2026-05-09 11:00 | 37.93716 | 23.95070 | 303 ft | 20 kts | 37° |
| 2026-05-09 11:00 | 37.93781 | 23.95130 | 300 ft | 6 kts | 18° |
| 2026-05-09 11:01 | 37.93817 | 23.95092 | 302 ft | 7 kts | 308° |
| 2026-05-09 11:01 | 37.93834 | 23.95065 | 301 ft | 3 kts | 308° |
| 2026-05-09 11:01 | 37.93838 | 23.95058 | 301 ft | 0 kts | 308° |